Time;durP1;ratioP1;P1;durP2;ratioP2;P2;SDS_P1;SDS_P2;PMS_P1;PMS_P2;Temp;Humidity;BMP_temperature;BMP_pressure;BME280_temperature;BME280_humidity;BME280_pressure;Samples;Min_cycle;Max_cycle;Signal;HPM_P1;HPM_P2
2022/12/22 03:25:51;;;;;;;83.10;34.72;;;8.70;99.90;;;;;;5019065;28;20629;-66
2022/12/22 03:28:18;;;;;;;196.68;47.22;;;8.80;99.90;;;;;;5021999;28;20464;-66
2022/12/22 03:30:44;;;;;;;113.85;39.83;;;8.70;99.90;;;;;;5014064;28;20334;-66
2022/12/22 03:33:09;;;;;;;120.97;39.45;;;8.60;99.90;;;;;;5021804;28;20087;-67
2022/12/22 03:35:35;;;;;;;175.57;44.20;;;8.70;99.90;;;;;;5019867;28;20381;-66
2022/12/22 03:38:02;;;;;;;205.02;45.47;;;8.80;99.90;;;;;;5026170;28;20512;-66
2022/12/22 03:40:31;;;;;;;197.13;45.90;;;8.80;99.90;;;;;;5026107;28;20073;-66
2022/12/22 03:48:26;;;;;;;191.68;44.78;;;8.70;99.90;;;;;;5020234;28;20046;-66
2022/12/22 03:50:51;;;;;;;163.40;41.25;;;8.70;99.90;;;;;;5016084;28;20509;-66
2022/12/22 03:53:17;;;;;;;159.85;42.08;;;8.80;99.90;;;;;;5021825;28;20077;-67
2022/12/22 03:55:43;;;;;;;260.40;47.65;;;8.70;99.90;;;;;;5019337;28;20054;-66
2022/12/22 03:58:08;;;;;;;162.73;40.88;;;8.80;99.90;;;;;;5020880;28;20081;-66
2022/12/22 04:00:34;;;;;;;176.00;42.15;;;8.80;99.90;;;;;;5020853;28;20365;-67
2022/12/22 04:03:00;;;;;;;182.10;43.03;;;8.80;99.90;;;;;;5023940;28;20108;-67
2022/12/22 04:05:26;;;;;;;104.80;36.40;;;8.70;99.90;;;;;;5021757;28;20041;-66
2022/12/22 04:07:51;;;;;;;150.68;40.92;;;8.70;99.90;;;;;;5023582;28;20030;-67
2022/12/22 04:13:01;;;;;;;222.10;46.30;;;8.70;99.90;;;;;;5024205;28;20418;-66
2022/12/22 04:15:30;;;;;;;149.50;39.97;;;8.70;99.90;;;;;;5019777;28;20041;-66
2022/12/22 04:17:57;;;;;;;172.98;41.63;;;8.80;99.90;;;;;;5021993;28;20059;-66
2022/12/22 04:20:27;;;;;;;158.90;40.72;;;8.70;99.90;;;;;;5024883;28;20047;-66
2022/12/22 04:22:55;;;;;;;79.32;32.83;;;8.70;99.90;;;;;;5020764;28;20108;-66
2022/12/22 04:25:21;;;;;;;81.13;32.92;;;8.70;99.90;;;;;;5019829;28;20056;-66
2022/12/22 04:27:46;;;;;;;94.50;33.03;;;8.70;99.90;;;;;;5021726;28;20038;-66
2022/12/22 04:30:12;;;;;;;152.30;38.17;;;8.70;99.90;;;;;;5019094;28;20042;-66
2022/12/22 04:32:38;;;;;;;169.40;38.75;;;8.70;99.90;;;;;;5037611;28;20053;-66
2022/12/22 04:35:05;;;;;;;86.65;33.13;;;8.70;99.90;;;;;;5022898;28;20644;-66
2022/12/22 04:37:31;;;;;;;123.13;36.35;;;8.70;99.90;;;;;;5022028;28;20038;-66
2022/12/22 04:39:57;;;;;;;87.70;33.55;;;8.80;99.90;;;;;;5036921;28;20080;-66
2022/12/22 04:42:22;;;;;;;78.80;31.15;;;8.80;99.90;;;;;;5015538;28;20085;-66
2022/12/22 04:44:49;;;;;;;123.00;35.63;;;8.70;99.90;;;;;;5020977;28;20559;-67
2022/12/22 04:47:14;;;;;;;101.00;33.95;;;8.70;99.90;;;;;;5021452;28;20056;-66
2022/12/22 04:49:40;;;;;;;101.40;34.00;;;8.70;99.90;;;;;;5017867;28;20065;-66
2022/12/22 04:52:06;;;;;;;122.25;34.03;;;8.80;99.90;;;;;;5013401;28;20137;-66
2022/12/22 04:54:32;;;;;;;95.00;33.53;;;8.80;99.90;;;;;;5020523;28;20124;-66
2022/12/22 04:56:58;;;;;;;86.50;31.45;;;8.80;99.90;;;;;;5037307;28;20120;-67
2022/12/22 04:59:24;;;;;;;166.57;37.20;;;8.80;99.90;;;;;;5022334;28;20049;-66
2022/12/22 05:01:49;;;;;;;171.63;37.47;;;8.80;99.90;;;;;;5015341;28;20056;-66
2022/12/22 05:04:15;;;;;;;192.68;38.80;;;8.70;99.90;;;;;;5020270;28;20505;-66
2022/12/22 05:06:41;;;;;;;201.07;37.70;;;8.80;99.90;;;;;;5017713;28;20061;-66
2022/12/22 05:09:07;;;;;;;148.73;35.63;;;8.70;99.90;;;;;;5018478;28;20072;-66
2022/12/22 05:11:32;;;;;;;76.88;28.92;;;8.70;99.90;;;;;;5015462;28;20052;-66
2022/12/22 05:13:58;;;;;;;224.60;39.17;;;8.70;99.90;;;;;;5019623;28;20093;-67
2022/12/22 05:16:24;;;;;;;95.55;29.30;;;8.70;99.90;;;;;;5021820;28;20084;-66
2022/12/22 05:18:50;;;;;;;92.20;29.25;;;8.80;99.90;;;;;;5019692;28;20081;-67
2022/12/22 05:21:18;;;;;;;106.40;28.92;;;8.70;99.90;;;;;;5020842;28;20075;-66
2022/12/22 05:23:44;;;;;;;137.65;33.65;;;8.80;99.90;;;;;;5009217;28;20361;-65
2022/12/22 05:26:13;;;;;;;184.80;35.70;;;8.70;99.90;;;;;;5021283;28;20037;-66
2022/12/22 05:28:40;;;;;;;131.00;32.83;;;8.80;99.90;;;;;;5018235;28;20046;-66
2022/12/22 05:31:26;;;;;;;89.68;30.77;;;8.80;99.90;;;;;;5018436;28;20045;-66
2022/12/22 05:33:52;;;;;;;203.07;38.30;;;8.70;99.90;;;;;;5023980;28;20164;-66
2022/12/22 05:36:18;;;;;;;112.50;33.35;;;8.80;99.90;;;;;;5023255;28;20065;-66
2022/12/22 05:38:44;;;;;;;144.57;36.35;;;8.70;99.90;;;;;;5021521;28;20466;-66
2022/12/22 05:41:10;;;;;;;110.30;33.55;;;8.80;99.90;;;;;;5017242;28;20040;-66
2022/12/22 05:43:36;;;;;;;104.75;33.47;;;8.80;99.90;;;;;;5021247;28;20038;-65
2022/12/22 05:46:08;;;;;;;96.05;33.38;;;8.70;99.90;;;;;;5018179;28;20382;-65
2022/12/22 05:48:34;;;;;;;81.60;33.70;;;8.70;99.90;;;;;;5015942;28;20087;-66
2022/12/22 05:51:00;;;;;;;91.70;33.92;;;8.70;99.90;;;;;;5016508;28;20367;-65
2022/12/22 05:53:26;;;;;;;134.82;37.55;;;8.70;99.90;;;;;;5018819;28;20132;-66
2022/12/22 05:55:52;;;;;;;219.52;42.63;;;8.70;99.90;;;;;;5018090;28;20524;-66
2022/12/22 05:58:18;;;;;;;95.10;34.20;;;8.70;99.90;;;;;;5021695;28;20378;-65
2022/12/22 06:00:44;;;;;;;114.63;36.40;;;8.70;99.90;;;;;;4997441;28;20418;-66
2022/12/22 06:03:10;;;;;;;170.15;38.63;;;8.70;99.90;;;;;;5019814;28;20334;-66
2022/12/22 06:05:35;;;;;;;203.85;40.60;;;8.70;99.90;;;;;;5019828;28;20041;-65
2022/12/22 06:08:01;;;;;;;107.32;35.47;;;8.70;99.90;;;;;;5018421;28;20072;-66
2022/12/22 06:10:27;;;;;;;122.63;36.30;;;8.70;99.90;;;;;;5018274;28;20088;-65
2022/12/22 06:12:52;;;;;;;110.93;36.03;;;8.60;99.90;;;;;;5022602;28;20398;-66
2022/12/22 06:15:18;;;;;;;124.90;37.45;;;8.60;99.90;;;;;;5022380;28;20052;-66
2022/12/22 06:17:44;;;;;;;98.50;35.58;;;8.60;99.90;;;;;;5024410;28;20465;-65
2022/12/22 06:20:10;;;;;;;157.65;39.30;;;8.60;99.90;;;;;;5019901;28;20045;-67
2022/12/22 06:22:36;;;;;;;171.05;38.97;;;8.60;99.90;;;;;;5018118;28;20056;-66
2022/12/22 06:25:01;;;;;;;97.07;33.33;;;8.50;99.90;;;;;;5020363;28;20045;-66
2022/12/22 06:27:27;;;;;;;116.25;34.25;;;8.50;99.90;;;;;;5019248;28;20121;-65
2022/12/22 06:29:53;;;;;;;95.95;32.78;;;8.50;99.90;;;;;;5018527;28;20057;-66
2022/12/22 06:32:18;;;;;;;124.45;36.17;;;8.50;99.90;;;;;;5017475;28;20072;-66
2022/12/22 06:34:44;;;;;;;114.57;34.35;;;8.40;99.90;;;;;;5019198;28;20033;-65
2022/12/22 06:37:10;;;;;;;91.75;32.75;;;8.40;99.90;;;;;;5019082;28;20580;-65
2022/12/22 06:39:36;;;;;;;87.43;30.75;;;8.30;99.90;;;;;;5016937;28;20049;-66
2022/12/22 06:44:49;;;;;;;103.53;32.75;;;8.30;99.90;;;;;;5020688;28;20505;-65
2022/12/22 06:47:15;;;;;;;79.05;29.58;;;8.30;99.90;;;;;;5014521;28;20132;-65
2022/12/22 06:49:41;;;;;;;218.13;40.70;;;8.30;99.90;;;;;;5021746;28;20042;-65
2022/12/22 06:52:07;;;;;;;111.13;33.08;;;8.30;99.90;;;;;;5017541;28;20100;-65
2022/12/22 06:54:33;;;;;;;94.65;31.88;;;8.20;99.90;;;;;;5022178;28;20045;-65
2022/12/22 06:56:59;;;;;;;115.20;33.05;;;8.10;99.90;;;;;;5012248;28;20041;-66
2022/12/22 06:59:25;;;;;;;99.63;30.63;;;8.00;99.90;;;;;;5017727;28;20385;-66
2022/12/22 07:01:50;;;;;;;121.50;31.23;;;8.00;99.90;;;;;;5013158;28;20405;-65
2022/12/22 07:04:19;;;;;;;90.57;29.92;;;7.90;99.90;;;;;;5011231;28;20046;-65
2022/12/22 07:06:46;;;;;;;121.30;28.15;;;7.70;99.90;;;;;;5015791;28;20060;-66
2022/12/22 07:09:11;;;;;;;156.93;33.10;;;7.70;99.90;;;;;;5016855;28;20038;-65
2022/12/22 07:11:37;;;;;;;92.07;26.02;;;7.50;99.90;;;;;;5015020;28;20057;-65
2022/12/22 07:14:07;;;;;;;171.35;33.28;;;7.40;99.90;;;;;;5034072;28;20058;-66
2022/12/22 07:16:33;;;;;;;192.13;32.30;;;7.30;99.90;;;;;;5011938;28;20145;-65
2022/12/22 07:18:59;;;;;;;130.98;31.10;;;7.20;99.90;;;;;;5017491;28;20616;-65
2022/12/22 07:21:24;;;;;;;133.65;32.15;;;7.10;99.90;;;;;;5017462;28;20057;-64
2022/12/22 07:23:50;;;;;;;101.57;30.48;;;7.10;99.90;;;;;;5017666;28;20122;-65
2022/12/22 07:26:16;;;;;;;110.57;32.45;;;7.10;99.90;;;;;;5020419;28;20037;-65
2022/12/22 07:28:42;;;;;;;101.05;31.60;;;7.20;99.90;;;;;;5022539;28;20030;-65
2022/12/22 07:31:09;;;;;;;97.68;30.88;;;7.20;99.90;;;;;;5036037;28;20125;-65
2022/12/22 07:33:35;;;;;;;105.75;30.63;;;7.20;99.90;;;;;;5023705;28;20080;-65
2022/12/22 07:36:13;;;;;;;131.95;33.55;;;7.20;99.90;;;;;;5027212;28;20045;-65
2022/12/22 07:38:40;;;;;;;116.93;32.53;;;7.30;99.90;;;;;;5024601;28;20042;-65
2022/12/22 07:43:54;;;;;;;211.07;37.78;;;7.30;99.90;;;;;;5015339;28;20168;-65
2022/12/22 07:46:21;;;;;;;160.40;34.10;;;7.30;99.90;;;;;;5025557;28;20396;-65
2022/12/22 07:51:35;;;;;;;217.53;34.63;;;7.30;99.90;;;;;;5020492;28;20056;-65
2022/12/22 07:54:04;;;;;;;233.90;36.40;;;7.40;99.90;;;;;;5017855;28;20344;-65
2022/12/22 07:56:30;;;;;;;216.15;37.88;;;7.30;99.90;;;;;;5022661;28;20052;-66
2022/12/22 07:58:56;;;;;;;284.40;40.10;;;7.30;99.90;;;;;;5024588;28;20033;-66
2022/12/22 08:01:22;;;;;;;215.02;37.40;;;7.30;99.90;;;;;;5024651;28;20048;-65
2022/12/22 08:03:47;;;;;;;238.00;37.03;;;7.30;99.90;;;;;;5023629;28;20034;-66
2022/12/22 08:06:13;;;;;;;177.75;34.08;;;7.30;99.90;;;;;;5023055;28;20203;-65
2022/12/22 08:08:39;;;;;;;118.85;29.63;;;7.30;99.90;;;;;;5025469;28;20393;-66
2022/12/22 08:11:05;;;;;;;137.23;30.30;;;7.30;99.90;;;;;;5021769;28;20054;-65
2022/12/22 08:13:31;;;;;;;112.47;28.02;;;7.30;99.90;;;;;;5020238;28;20041;-65
2022/12/22 08:16:09;;;;;;;138.73;28.55;;;7.30;99.90;;;;;;5024657;28;20116;-66
2022/12/22 08:18:35;;;;;;;125.65;28.10;;;7.20;99.90;;;;;;5022221;28;20034;-65
2022/12/22 08:21:02;;;;;;;114.88;26.55;;;7.20;99.90;;;;;;5023881;28;20085;-66
2022/12/22 08:23:27;;;;;;;134.80;27.70;;;7.10;99.90;;;;;;5022419;28;20070;-66
2022/12/22 08:26:22;;;;;;;194.30;31.00;;;7.20;99.90;;;;;;5020801;28;20095;-63
2022/12/22 08:29:15;;;;;;;109.80;25.45;;;7.10;99.90;;;;;;5017258;28;20060;-64
2022/12/22 08:31:41;;;;;;;112.05;26.88;;;7.10;99.90;;;;;;5022924;28;20397;-63
2022/12/22 08:34:11;;;;;;;141.50;28.25;;;7.10;99.90;;;;;;5017093;28;20037;-64
2022/12/22 08:36:40;;;;;;;105.80;24.65;;;7.20;99.90;;;;;;5021462;28;20038;-64
2022/12/22 08:39:07;;;;;;;148.75;26.40;;;7.10;99.90;;;;;;5025784;28;20237;-65
2022/12/22 08:41:49;;;;;;;104.88;24.15;;;7.10;99.90;;;;;;5021224;28;20034;-64
2022/12/22 08:44:19;;;;;;;161.98;26.60;;;7.10;99.90;;;;;;5018964;28;20037;-64
2022/12/22 08:46:45;;;;;;;90.75;21.60;;;7.10;99.90;;;;;;5022372;28;20041;-65
2022/12/22 08:49:11;;;;;;;117.32;22.85;;;7.10;99.90;;;;;;5026750;28;20041;-65
2022/12/22 08:51:37;;;;;;;127.78;24.02;;;7.10;99.90;;;;;;5005206;28;20037;-65
2022/12/22 08:54:03;;;;;;;94.78;21.45;;;7.10;99.90;;;;;;5022011;28;20116;-64
2022/12/22 08:56:30;;;;;;;138.13;23.73;;;7.10;99.90;;;;;;5023415;28;20032;-65
2022/12/22 08:58:55;;;;;;;88.30;21.10;;;7.10;99.90;;;;;;5021193;28;20041;-65
2022/12/22 09:01:22;;;;;;;99.60;21.42;;;7.00;99.90;;;;;;5018703;28;20527;-65
2022/12/22 09:03:52;;;;;;;116.65;22.15;;;7.00;99.90;;;;;;5024029;28;20033;-65
2022/12/22 09:06:20;;;;;;;113.78;20.95;;;7.10;99.90;;;;;;5024712;28;20080;-64
2022/12/22 09:08:46;;;;;;;118.28;21.85;;;7.00;99.90;;;;;;5020247;28;20080;-65
2022/12/22 09:11:12;;;;;;;110.93;21.50;;;7.00;99.90;;;;;;5018840;28;20050;-65
2022/12/22 09:13:38;;;;;;;88.97;20.05;;;7.00;99.90;;;;;;5020180;28;20127;-65
2022/12/22 09:16:08;;;;;;;87.38;19.30;;;7.00;99.90;;;;;;5019588;28;20038;-65
2022/12/22 09:18:33;;;;;;;83.55;18.85;;;7.00;99.90;;;;;;5018127;28;20517;-65
2022/12/22 09:20:59;;;;;;;93.82;20.63;;;7.00;99.90;;;;;;5018843;28;20087;-65
2022/12/22 09:23:26;;;;;;;89.45;20.30;;;7.00;99.90;;;;;;5024367;28;20037;-65
2022/12/22 09:25:52;;;;;;;109.78;21.67;;;7.00;99.90;;;;;;5018495;28;20509;-65
2022/12/22 09:28:18;;;;;;;93.35;21.30;;;7.10;99.90;;;;;;5036759;28;20098;-65
2022/12/22 09:30:52;;;;;;;146.82;23.88;;;7.10;99.90;;;;;;5020546;28;20048;-65
2022/12/22 09:33:17;;;;;;;119.85;22.95;;;7.20;99.90;;;;;;5023381;28;20033;-65
2022/12/22 09:35:43;;;;;;;81.03;18.85;;;7.20;99.90;;;;;;5017385;28;20065;-66
2022/12/22 09:38:09;;;;;;;82.07;18.45;;;7.20;99.90;;;;;;5020780;28;20231;-65
2022/12/22 09:40:35;;;;;;;56.40;16.50;;;7.20;99.90;;;;;;5022468;28;20037;-65
2022/12/22 09:43:03;;;;;;;52.63;15.40;;;7.20;99.90;;;;;;5015593;28;20112;-66
2022/12/22 09:45:32;;;;;;;51.55;15.50;;;7.20;99.90;;;;;;5021336;28;20080;-65
2022/12/22 09:47:59;;;;;;;61.65;15.77;;;7.20;99.90;;;;;;5013693;28;20034;-65
2022/12/22 09:50:26;;;;;;;44.05;15.25;;;7.20;99.90;;;;;;5019705;28;20076;-65
2022/12/22 09:53:03;;;;;;;66.55;16.50;;;7.10;99.90;;;;;;5012997;28;20042;-64
2022/12/22 09:55:38;;;;;;;51.90;15.77;;;7.20;99.90;;;;;;5017842;28;20113;-66
2022/12/22 09:58:26;;;;;;;50.95;16.00;;;7.20;99.90;;;;;;5019145;28;20042;-65
2022/12/22 10:01:20;;;;;;;47.80;15.80;;;7.10;99.90;;;;;;5020520;28;20498;-64
2022/12/22 10:04:03;;;;;;;56.05;14.90;;;7.10;99.90;;;;;;5018934;28;20563;-65
2022/12/22 10:06:42;;;;;;;55.90;15.85;;;7.20;99.90;;;;;;5019547;28;20536;-65
2022/12/22 10:09:28;;;;;;;47.03;15.77;;;7.30;99.90;;;;;;5018997;28;20048;-65
2022/12/22 10:11:59;;;;;;;42.22;14.48;;;7.40;99.90;;;;;;5019571;28;20065;-65
2022/12/22 10:14:36;;;;;;;48.55;16.08;;;7.40;99.90;;;;;;5000077;28;20537;-65
2022/12/22 10:17:22;;;;;;;46.63;14.60;;;7.50;99.90;;;;;;5018947;28;20371;-65
2022/12/22 10:19:50;;;;;;;44.78;15.32;;;7.60;99.90;;;;;;5017247;28;20042;-66
2022/12/22 10:22:32;;;;;;;41.47;14.43;;;7.50;99.90;;;;;;5017561;28;20077;-65
2022/12/22 10:25:03;;;;;;;44.55;13.77;;;7.50;99.90;;;;;;5018751;28;20037;-65
2022/12/22 10:27:35;;;;;;;37.28;13.60;;;7.50;99.90;;;;;;5018761;28;20145;-65
2022/12/22 10:30:23;;;;;;;32.78;12.38;;;7.60;99.90;;;;;;5022235;28;20555;-65
2022/12/22 10:33:11;;;;;;;32.15;12.98;;;7.60;99.90;;;;;;5020211;28;20042;-65
2022/12/22 10:35:56;;;;;;;31.40;11.75;;;7.70;99.90;;;;;;5017688;28;20042;-65
2022/12/22 10:38:29;;;;;;;33.08;11.75;;;7.60;99.90;;;;;;5018954;28;20041;-64
2022/12/22 10:41:01;;;;;;;33.70;11.90;;;7.60;99.90;;;;;;5023183;28;20477;-65
2022/12/22 10:43:29;;;;;;;40.30;12.57;;;7.70;99.90;;;;;;5015355;28;20423;-65
2022/12/22 10:45:57;;;;;;;30.85;12.00;;;7.80;99.90;;;;;;5017576;28;20073;-65
2022/12/22 10:48:32;;;;;;;33.25;12.10;;;7.80;99.90;;;;;;5016427;28;20147;-64
2022/12/22 10:51:00;;;;;;;28.63;12.25;;;7.70;99.90;;;;;;5019107;28;20048;-66
2022/12/22 10:53:54;;;;;;;30.80;12.65;;;7.80;99.90;;;;;;5020355;28;20508;-65
2022/12/22 10:56:34;;;;;;;28.13;11.40;;;7.90;99.90;;;;;;5021532;28;20462;-64
2022/12/22 10:59:00;;;;;;;32.80;12.18;;;7.90;99.90;;;;;;5017944;28;20455;-65
2022/12/22 11:01:37;;;;;;;25.15;11.45;;;7.90;99.90;;;;;;5020137;28;20042;-65
2022/12/22 11:04:21;;;;;;;29.23;10.98;;;7.90;99.90;;;;;;5017899;28;20037;-65
2022/12/22 11:06:47;;;;;;;23.33;10.85;;;7.90;99.90;;;;;;5024979;28;20660;-65
2022/12/22 11:09:13;;;;;;;22.77;10.60;;;7.90;99.90;;;;;;5020888;28;20153;-65
2022/12/22 11:12:17;;;;;;;24.33;9.77;;;7.90;99.90;;;;;;5025576;28;20041;-65
2022/12/22 11:14:48;;;;;;;26.15;11.00;;;7.80;99.90;;;;;;5021476;28;20083;-65
2022/12/22 11:17:14;;;;;;;23.83;10.13;;;7.80;99.90;;;;;;5025283;28;20334;-64
2022/12/22 11:20:04;;;;;;;20.90;10.07;;;7.90;99.90;;;;;;5020236;28;20038;-65
2022/12/22 11:22:32;;;;;;;18.95;8.95;;;8.00;99.90;;;;;;5022881;28;20084;-65
2022/12/22 11:25:22;;;;;;;21.67;10.35;;;7.90;99.90;;;;;;5022066;28;20346;-65
2022/12/22 11:28:09;;;;;;;28.13;10.32;;;8.00;99.90;;;;;;5022022;28;20131;-66
2022/12/22 11:30:58;;;;;;;20.30;10.27;;;8.00;99.90;;;;;;5019967;28;20037;-65
2022/12/22 11:33:33;;;;;;;21.33;10.32;;;8.00;99.90;;;;;;5021281;28;20057;-65
2022/12/22 11:36:08;;;;;;;18.80;10.38;;;8.20;99.90;;;;;;5021749;28;20124;-64
2022/12/22 11:38:44;;;;;;;22.02;11.63;;;8.10;99.90;;;;;;5019112;28;20131;-65
2022/12/22 11:41:46;;;;;;;25.02;11.13;;;8.10;99.90;;;;;;5020404;28;20409;-65
2022/12/22 11:44:26;;;;;;;23.70;10.57;;;8.10;99.90;;;;;;5021108;28;20045;-65
2022/12/22 11:47:02;;;;;;;29.30;10.15;;;8.00;99.90;;;;;;5016368;28;20064;-65
2022/12/22 11:49:49;;;;;;;17.83;9.13;;;7.90;99.90;;;;;;5021754;28;20048;-65
2022/12/22 11:52:52;;;;;;;18.50;9.60;;;7.90;99.90;;;;;;5018164;28;20445;-65
2022/12/22 11:55:24;;;;;;;19.73;8.65;;;7.90;99.90;;;;;;5024974;28;20191;-65
2022/12/22 11:58:02;;;;;;;19.38;8.15;;;7.80;99.90;;;;;;5022902;28;20037;-65
2022/12/22 12:00:35;;;;;;;19.42;8.18;;;7.70;99.90;;;;;;5019771;28;20103;-65
2022/12/22 12:03:31;;;;;;;15.90;8.20;;;7.70;99.90;;;;;;5016441;28;20124;-64
2022/12/22 12:06:26;;;;;;;17.75;8.27;;;7.80;99.90;;;;;;5023602;28;20048;-65
2022/12/22 12:09:35;;;;;;;20.90;9.32;;;7.70;99.90;;;;;;5025975;28;20041;-65
2022/12/22 12:12:07;;;;;;;19.38;8.32;;;7.70;99.90;;;;;;5022085;28;20473;-65
2022/12/22 12:14:55;;;;;;;21.67;8.55;;;7.70;99.90;;;;;;5020756;28;20049;-65
2022/12/22 12:17:51;;;;;;;18.13;9.05;;;7.70;99.90;;;;;;5021552;28;20048;-64
2022/12/22 12:20:46;;;;;;;17.50;9.38;;;7.70;99.90;;;;;;5021187;28;20193;-65
2022/12/22 12:23:26;;;;;;;19.55;8.20;;;7.70;99.90;;;;;;5020459;28;20045;-65
2022/12/22 12:26:44;;;;;;;15.50;8.40;;;7.80;99.90;;;;;;5018252;28;20067;-65
2022/12/22 12:29:18;;;;;;;17.15;8.77;;;7.90;99.90;;;;;;5024152;28;20049;-65
2022/12/22 12:31:59;;;;;;;;;;;7.90;99.90;;;;;;5020596;28;20160;-65
2022/12/22 12:34:28;;;;;;;21.35;8.45;;;7.90;99.90;;;;;;5021263;28;20095;-65
2022/12/22 12:37:20;;;;;;;16.75;8.75;;;8.00;99.90;;;;;;5017316;28;20038;-65
2022/12/22 12:40:05;;;;;;;20.75;8.77;;;8.20;99.90;;;;;;5023202;28;20041;-65
2022/12/22 12:42:38;;;;;;;23.27;9.63;;;8.30;99.90;;;;;;5018956;28;20523;-64
2022/12/22 12:45:23;;;;;;;20.70;9.75;;;8.40;99.90;;;;;;5020243;28;20289;-65
2022/12/22 12:47:49;;;;;;;24.13;9.73;;;8.50;99.90;;;;;;5023075;28;20042;-65
2022/12/22 12:50:34;;;;;;;23.65;9.60;;;8.70;99.90;;;;;;5017275;28;20474;-65
2022/12/22 12:52:59;;;;;;;;;;;8.60;99.90;;;;;;5017941;28;20128;-64
2022/12/22 12:55:39;;;;;;;23.52;10.13;;;8.60;99.90;;;;;;5027926;28;20438;-65
2022/12/22 12:58:09;;;;;;;22.10;9.77;;;8.70;99.90;;;;;;5021789;28;20042;-64
2022/12/22 13:00:35;;;;;;;21.83;8.95;;;8.80;99.90;;;;;;5019424;28;20498;-64
2022/12/22 13:03:09;;;;;;;23.65;10.35;;;8.80;99.90;;;;;;5019436;28;20034;-65
2022/12/22 13:05:51;;;;;;;22.77;9.15;;;8.80;99.90;;;;;;5021881;28;20041;-65
2022/12/22 13:09:01;;;;;;;20.88;9.55;;;8.80;99.90;;;;;;5017483;28;20048;-65
2022/12/22 13:11:30;;;;;;;17.02;9.05;;;8.80;99.90;;;;;;4991763;28;20034;-65
2022/12/22 13:13:56;;;;;;;19.23;8.35;;;8.70;99.90;;;;;;5020125;28;20041;-64
2022/12/22 13:16:24;;;;;;;26.95;10.93;;;8.70;99.90;;;;;;5017466;28;20060;-65
2022/12/22 13:18:50;;;;;;;19.80;9.85;;;8.70;99.90;;;;;;5023091;28;20073;-65
2022/12/22 13:21:24;;;;;;;17.13;8.85;;;8.70;99.90;;;;;;5024268;28;20046;-64
2022/12/22 13:23:50;;;;;;;;;;;8.70;99.90;;;;;;5025825;28;20041;-65
2022/12/22 13:26:50;;;;;;;19.27;8.82;;;8.70;99.90;;;;;;5020666;28;20373;-65
2022/12/22 13:29:25;;;;;;;22.77;8.52;;;8.70;99.90;;;;;;5019134;28;20049;-65
2022/12/22 13:31:54;;;;;;;19.05;8.57;;;8.70;99.90;;;;;;5020970;28;20432;-65
2022/12/22 13:34:36;;;;;;;20.15;8.32;;;8.80;99.90;;;;;;5018877;28;20089;-65
2022/12/22 13:37:14;;;;;;;16.80;7.65;;;8.90;99.90;;;;;;5023752;28;20057;-65
2022/12/22 13:39:39;;;;;;;17.70;7.75;;;9.00;99.90;;;;;;5017711;28;20141;-65
2022/12/22 13:42:06;;;;;;;18.27;7.47;;;9.00;99.90;;;;;;5016373;28;20432;-64
2022/12/22 13:44:33;;;;;;;15.50;6.93;;;9.00;99.90;;;;;;5035444;28;20042;-65
2022/12/22 13:47:05;;;;;;;24.08;7.80;;;9.00;99.90;;;;;;5013886;28;20100;-64
2022/12/22 13:49:34;;;;;;;17.42;7.15;;;9.00;99.90;;;;;;5014942;28;20069;-65
2022/12/22 13:52:01;;;;;;;22.13;7.78;;;8.90;99.90;;;;;;5017416;28;20037;-64
2022/12/22 13:54:34;;;;;;;17.50;7.05;;;8.80;99.90;;;;;;5026460;28;20042;-65
2022/12/22 13:57:04;;;;;;;13.15;6.80;;;8.80;99.90;;;;;;5019457;28;20123;-65
2022/12/22 13:59:38;;;;;;;16.70;6.90;;;8.70;99.90;;;;;;5016198;28;20043;-65
2022/12/22 14:02:06;;;;;;;13.85;7.30;;;8.60;99.90;;;;;;5020130;28;20056;-65
2022/12/22 14:04:52;;;;;;;16.35;7.40;;;8.60;99.90;;;;;;5021346;28;20614;-65
2022/12/22 14:07:19;;;;;;;15.60;7.63;;;8.50;99.90;;;;;;5019365;28;20041;-64
2022/12/22 14:09:50;;;;;;;18.98;7.20;;;8.40;99.90;;;;;;5019797;28;20044;-65
2022/12/22 14:12:17;;;;;;;17.13;7.80;;;8.40;99.90;;;;;;5016223;28;20424;-64
2022/12/22 14:14:46;;;;;;;18.33;8.05;;;8.40;99.90;;;;;;5019032;28;20072;-65
2022/12/22 14:17:14;;;;;;;17.63;7.22;;;8.40;99.90;;;;;;5017313;28;20077;-66
2022/12/22 14:19:40;;;;;;;19.30;7.38;;;8.30;99.90;;;;;;5019325;28;20068;-65
2022/12/22 14:22:16;;;;;;;17.40;7.43;;;8.30;99.90;;;;;;5014799;28;20041;-64
2022/12/22 14:24:53;;;;;;;16.35;7.03;;;8.30;99.90;;;;;;5017836;28;20034;-65
2022/12/22 14:27:34;;;;;;;16.50;7.22;;;8.40;99.90;;;;;;5020508;28;20041;-64
2022/12/22 14:30:02;;;;;;;11.85;6.78;;;8.40;99.90;;;;;;5021178;28;20049;-64
2022/12/22 14:32:54;;;;;;;14.02;7.07;;;8.50;99.90;;;;;;5021868;28;20064;-65
2022/12/22 14:35:20;;;;;;;17.60;7.90;;;8.50;99.90;;;;;;5013184;28;20077;-65
2022/12/22 14:38:13;;;;;;;17.65;7.10;;;8.50;99.90;;;;;;5026247;28;20103;-65
2022/12/22 14:40:41;;;;;;;19.10;7.72;;;8.50;99.90;;;;;;5016278;28;20042;-66
2022/12/22 14:43:29;;;;;;;20.00;7.63;;;8.50;99.90;;;;;;5022400;28;20038;-65
2022/12/22 14:46:05;;;;;;;14.88;7.97;;;8.50;99.90;;;;;;5023021;28;20505;-64
2022/12/22 14:48:36;;;;;;;16.17;7.55;;;8.40;99.90;;;;;;5027055;28;20482;-65
2022/12/22 14:51:02;;;;;;;13.95;8.10;;;8.40;99.90;;;;;;5023816;28;20045;-64
2022/12/22 14:53:51;;;;;;;18.83;8.00;;;8.40;99.90;;;;;;5022079;28;20119;-65
2022/12/22 14:56:18;;;;;;;19.85;7.68;;;8.30;99.90;;;;;;5020965;28;20050;-65
2022/12/22 14:58:45;;;;;;;17.38;7.18;;;8.30;99.90;;;;;;5023370;28;20037;-64
2022/12/22 15:01:18;;;;;;;17.25;7.80;;;8.30;99.90;;;;;;5021168;28;20045;-65
2022/12/22 15:04:00;;;;;;;15.75;6.97;;;8.20;99.90;;;;;;5018309;28;20505;-64
2022/12/22 15:06:25;;;;;;;17.75;6.95;;;8.20;99.90;;;;;;5019553;28;20044;-64
2022/12/22 15:09:12;;;;;;;18.88;6.63;;;8.20;99.90;;;;;;5020659;28;20494;-65
2022/12/22 15:11:43;;;;;;;16.52;6.95;;;8.20;99.90;;;;;;5008782;28;20056;-64
2022/12/22 15:14:12;;;;;;;14.93;6.00;;;8.20;99.90;;;;;;5016403;28;20049;-64
2022/12/22 15:16:38;;;;;;;13.38;6.38;;;8.20;99.90;;;;;;5020028;28;20113;-64
2022/12/22 15:19:04;;;;;;;16.95;7.30;;;8.20;99.90;;;;;;5021730;28;20117;-64
2022/12/22 15:21:32;;;;;;;15.88;6.75;;;8.20;99.90;;;;;;5020655;28;20281;-64
2022/12/22 15:23:58;;;;;;;11.43;6.05;;;8.10;99.90;;;;;;5022389;28;20488;-64
2022/12/22 15:26:23;;;;;;;16.33;6.75;;;8.10;99.90;;;;;;5025372;28;20037;-65
2022/12/22 15:28:49;;;;;;;16.17;6.60;;;8.10;99.90;;;;;;5019821;28;20491;-65
2022/12/22 15:31:16;;;;;;;14.82;6.82;;;8.10;99.90;;;;;;5035100;28;20042;-64
2022/12/22 15:33:43;;;;;;;17.02;6.70;;;8.10;99.90;;;;;;5020258;28;20104;-64
2022/12/22 15:36:11;;;;;;;15.18;8.02;;;8.00;99.90;;;;;;5019920;28;20048;-64
2022/12/22 15:38:38;;;;;;;17.15;7.35;;;8.10;99.90;;;;;;5018421;28;20068;-64
2022/12/22 15:41:04;;;;;;;14.70;6.80;;;8.00;99.90;;;;;;5020810;28;20041;-64
2022/12/22 15:43:30;;;;;;;14.68;7.10;;;8.10;99.90;;;;;;5021317;28;20029;-64
2022/12/22 15:45:56;;;;;;;21.63;7.28;;;8.00;99.90;;;;;;5014669;28;20432;-64
2022/12/22 15:48:29;;;;;;;19.25;7.50;;;8.10;99.90;;;;;;5016148;28;20371;-64
2022/12/22 15:50:56;;;;;;;17.38;7.47;;;8.10;99.90;;;;;;5016437;28;20037;-64
2022/12/22 15:53:22;;;;;;;15.75;7.22;;;8.00;99.90;;;;;;5015596;28;20515;-65
2022/12/22 15:55:50;;;;;;;16.83;8.18;;;8.00;99.90;;;;;;5018368;28;20435;-65
2022/12/22 15:58:19;;;;;;;13.35;7.63;;;8.00;99.90;;;;;;5014608;28;20117;-65
2022/12/22 16:00:45;;;;;;;12.20;7.80;;;8.10;99.90;;;;;;5010390;28;20079;-64
2022/12/22 16:03:11;;;;;;;20.17;8.85;;;8.10;99.90;;;;;;5012626;28;20079;-64
2022/12/22 16:05:38;;;;;;;19.23;9.32;;;8.00;99.90;;;;;;5018806;28;20338;-64
2022/12/22 16:08:13;;;;;;;18.33;9.50;;;8.00;99.90;;;;;;5012968;28;20048;-64
2022/12/22 16:10:40;;;;;;;19.25;10.75;;;8.00;99.90;;;;;;5025339;28;20044;-64
2022/12/22 16:13:11;;;;;;;14.10;10.32;;;8.00;99.90;;;;;;5016504;28;20477;-64
2022/12/22 16:15:37;;;;;;;17.85;10.88;;;8.00;99.90;;;;;;5015331;28;20046;-64
2022/12/22 16:18:03;;;;;;;17.52;10.07;;;8.10;99.90;;;;;;5019447;28;20111;-64
2022/12/22 16:20:34;;;;;;;18.02;11.35;;;8.10;99.90;;;;;;5019051;28;20042;-65
2022/12/22 16:23:02;;;;;;;18.63;13.88;;;8.10;99.90;;;;;;5015158;28;20172;-65
2022/12/22 16:25:34;;;;;;;20.38;13.80;;;8.10;99.90;;;;;;5019154;28;20045;-64
2022/12/22 16:28:03;;;;;;;24.60;15.52;;;8.10;99.90;;;;;;5022869;28;20727;-64
2022/12/22 16:30:32;;;;;;;20.23;14.23;;;8.10;99.90;;;;;;5015492;28;20041;-64
2022/12/22 16:32:57;;;;;;;20.38;14.05;;;8.00;99.90;;;;;;5019572;28;20077;-65
2022/12/22 16:35:27;;;;;;;22.60;15.23;;;7.90;99.90;;;;;;5018645;28;20460;-65
2022/12/22 16:37:58;;;;;;;23.52;15.25;;;7.90;99.90;;;;;;5021391;28;20052;-66
2022/12/22 16:40:25;;;;;;;19.42;14.27;;;8.00;99.90;;;;;;5019945;28;20401;-64